sensor_id;sensor_type;location;lat;lon;timestamp;pressure;altitude;pressure_sealevel;temperature;humidity
50650;BME280;36621;60.058;30.346;2022-08-21T00:03:38;101879.31;;;20.84;42.71
50650;BME280;36621;60.058;30.346;2022-08-21T00:11:10;101875.84;;;20.78;42.46
50650;BME280;36621;60.058;30.346;2022-08-21T00:18:42;101873.00;;;20.70;42.93
50650;BME280;36621;60.058;30.346;2022-08-21T00:26:14;101876.41;;;20.67;42.89
50650;BME280;36621;60.058;30.346;2022-08-21T00:33:46;101867.66;;;20.59;43.62
50650;BME280;36621;60.058;30.346;2022-08-21T00:41:18;101857.84;;;20.39;43.77
50650;BME280;36621;60.058;30.346;2022-08-21T00:48:51;101852.97;;;20.22;44.48
50650;BME280;36621;60.058;30.346;2022-08-21T00:56:22;101851.25;;;20.12;44.63
50650;BME280;36621;60.058;30.346;2022-08-21T01:03:56;101870.13;;;20.10;44.81
50650;BME280;36621;60.058;30.346;2022-08-21T01:11:27;101865.53;;;20.06;44.92
50650;BME280;36621;60.058;30.346;2022-08-21T01:19:00;101868.00;;;19.93;44.96
50650;BME280;36621;60.058;30.346;2022-08-21T01:26:33;101870.66;;;19.99;44.97
50650;BME280;36621;60.058;30.346;2022-08-21T01:34:06;101864.63;;;19.97;45.12
50650;BME280;36621;60.058;30.346;2022-08-21T01:41:38;101862.25;;;19.90;45.04
50650;BME280;36621;60.058;30.346;2022-08-21T01:49:10;101847.97;;;19.69;45.53
50650;BME280;36621;60.058;30.346;2022-08-21T01:56:43;101841.38;;;19.51;46.12
50650;BME280;36621;60.058;30.346;2022-08-21T02:04:16;101834.22;;;19.36;47.22
50650;BME280;36621;60.058;30.346;2022-08-21T02:11:49;101830.06;;;19.19;47.56
50650;BME280;36621;60.058;30.346;2022-08-21T02:19:22;101831.91;;;19.10;47.70
50650;BME280;36621;60.058;30.346;2022-08-21T02:26:54;101831.09;;;19.09;47.21
50650;BME280;36621;60.058;30.346;2022-08-21T02:34:26;101830.78;;;19.11;47.98
50650;BME280;36621;60.058;30.346;2022-08-21T02:41:58;101831.00;;;19.29;47.10
50650;BME280;36621;60.058;30.346;2022-08-21T02:49:30;101832.13;;;19.27;47.51
50650;BME280;36621;60.058;30.346;2022-08-21T02:57:03;101834.06;;;19.13;48.45
50650;BME280;36621;60.058;30.346;2022-08-21T03:04:34;101848.00;;;19.22;48.59
50650;BME280;36621;60.058;30.346;2022-08-21T03:12:07;101839.59;;;19.13;48.77
50650;BME280;36621;60.058;30.346;2022-08-21T03:19:39;101832.56;;;18.88;49.45
50650;BME280;36621;60.058;30.346;2022-08-21T03:27:11;101833.69;;;18.87;49.23
50650;BME280;36621;60.058;30.346;2022-08-21T03:34:44;101834.31;;;18.98;49.66
50650;BME280;36621;60.058;30.346;2022-08-21T03:42:16;101821.63;;;19.11;49.23
50650;BME280;36621;60.058;30.346;2022-08-21T03:49:49;101828.47;;;19.46;48.94
50650;BME280;36621;60.058;30.346;2022-08-21T03:57:22;101826.31;;;19.71;48.74
50650;BME280;36621;60.058;30.346;2022-08-21T04:04:54;101828.38;;;19.65;48.57
50650;BME280;36621;60.058;30.346;2022-08-21T04:12:26;101827.75;;;19.54;49.06
50650;BME280;36621;60.058;30.346;2022-08-21T04:19:58;101824.41;;;20.36;47.87
50650;BME280;36621;60.058;30.346;2022-08-21T04:27:31;101825.22;;;21.04;46.43
50650;BME280;36621;60.058;30.346;2022-08-21T04:35:04;101824.19;;;24.15;42.35
50650;BME280;36621;60.058;30.346;2022-08-21T04:42:42;101815.59;;;26.73;37.74
50650;BME280;36621;60.058;30.346;2022-08-21T04:50:15;101816.56;;;28.86;35.74
50650;BME280;36621;60.058;30.346;2022-08-21T04:58:08;101810.75;;;30.25;33.96
50650;BME280;36621;60.058;30.346;2022-08-21T05:05:40;101808.25;;;30.88;32.17
50650;BME280;36621;60.058;30.346;2022-08-21T05:13:13;101799.75;;;31.22;30.81
50650;BME280;36621;60.058;30.346;2022-08-21T05:20:45;101798.84;;;32.33;28.91
50650;BME280;36621;60.058;30.346;2022-08-21T05:28:18;101792.94;;;32.81;28.30
50650;BME280;36621;60.058;30.346;2022-08-21T05:35:50;101781.28;;;33.30;26.77
50650;BME280;36621;60.058;30.346;2022-08-21T05:43:23;101787.47;;;32.15;28.59
50650;BME280;36621;60.058;30.346;2022-08-21T05:50:55;101772.97;;;31.02;29.42
50650;BME280;36621;60.058;30.346;2022-08-21T05:58:28;101778.91;;;28.68;32.61
50650;BME280;36621;60.058;30.346;2022-08-21T06:05:59;101779.91;;;25.63;36.99
50650;BME280;36621;60.058;30.346;2022-08-21T06:13:32;101783.00;;;24.33;39.15
50650;BME280;36621;60.058;30.346;2022-08-21T06:21:04;101778.78;;;24.06;39.94
50650;BME280;36621;60.058;30.346;2022-08-21T06:28:37;101760.59;;;23.49;41.66
50650;BME280;36621;60.058;30.346;2022-08-21T06:36:09;101758.97;;;23.48;41.69
50650;BME280;36621;60.058;30.346;2022-08-21T06:43:43;101764.63;;;23.30;42.98
50650;BME280;36621;60.058;30.346;2022-08-21T06:51:15;101748.84;;;22.96;43.64
50650;BME280;36621;60.058;30.346;2022-08-21T06:58:48;101746.25;;;22.82;44.33
50650;BME280;36621;60.058;30.346;2022-08-21T07:06:20;101739.63;;;22.48;45.16
50650;BME280;36621;60.058;30.346;2022-08-21T07:13:52;101733.56;;;22.19;46.11
50650;BME280;36621;60.058;30.346;2022-08-21T07:21:27;101731.09;;;22.27;46.53
50650;BME280;36621;60.058;30.346;2022-08-21T07:29:00;101713.63;;;22.17;46.81
50650;BME280;36621;60.058;30.346;2022-08-21T07:36:31;101713.56;;;22.61;45.98
50650;BME280;36621;60.058;30.346;2022-08-21T07:44:04;101700.03;;;22.33;46.62
50650;BME280;36621;60.058;30.346;2022-08-21T07:51:36;101698.69;;;22.31;46.71
50650;BME280;36621;60.058;30.346;2022-08-21T07:59:08;101690.53;;;22.34;46.85
50650;BME280;36621;60.058;30.346;2022-08-21T08:06:40;101690.28;;;22.75;46.11
50650;BME280;36621;60.058;30.346;2022-08-21T08:14:13;101681.75;;;22.80;46.13
50650;BME280;36621;60.058;30.346;2022-08-21T08:21:44;101687.69;;;22.69;46.48
50650;BME280;36621;60.058;30.346;2022-08-21T08:29:17;101675.88;;;23.20;45.79
50650;BME280;36621;60.058;30.346;2022-08-21T08:36:48;101677.63;;;23.24;45.64
50650;BME280;36621;60.058;30.346;2022-08-21T08:44:21;101661.38;;;22.97;45.97
50650;BME280;36621;60.058;30.346;2022-08-21T08:51:55;101660.81;;;22.74;46.62
50650;BME280;36621;60.058;30.346;2022-08-21T09:16:37;101638.63;;;24.09;44.77
50650;BME280;36621;60.058;30.346;2022-08-21T09:42:22;101627.56;;;23.58;45.62
50650;BME280;36621;60.058;30.346;2022-08-21T12:03:13;101570.31;;;24.15;46.59
50650;BME280;36621;60.058;30.346;2022-08-21T12:27:51;101545.59;;;24.75;46.17
50650;BME280;36621;60.058;30.346;2022-08-21T12:35:37;101558.06;;;24.78;46.13
50650;BME280;36621;60.058;30.346;2022-08-21T13:00:38;101557.16;;;24.61;46.10
50650;BME280;36621;60.058;30.346;2022-08-21T15:40:35;101483.75;;;25.02;47.26
50650;BME280;36621;60.058;30.346;2022-08-21T15:48:07;101488.88;;;25.12;46.69
50650;BME280;36621;60.058;30.346;2022-08-21T15:55:48;101484.09;;;25.12;46.56
50650;BME280;36621;60.058;30.346;2022-08-21T16:03:20;101472.25;;;25.03;46.58
50650;BME280;36621;60.058;30.346;2022-08-21T16:11:08;101472.16;;;24.87;46.48
50650;BME280;36621;60.058;30.346;2022-08-21T16:18:42;101463.91;;;24.91;46.12
50650;BME280;36621;60.058;30.346;2022-08-21T16:26:15;101473.22;;;24.95;46.02
50650;BME280;36621;60.058;30.346;2022-08-21T16:33:49;101469.13;;;25.05;45.78
50650;BME280;36621;60.058;30.346;2022-08-21T16:41:25;101474.22;;;25.03;45.33
50650;BME280;36621;60.058;30.346;2022-08-21T16:49:03;101486.03;;;24.96;45.40
50650;BME280;36621;60.058;30.346;2022-08-21T16:56:47;101483.25;;;24.84;45.53
50650;BME280;36621;60.058;30.346;2022-08-21T17:22:44;101487.13;;;24.30;47.11
50650;BME280;36621;60.058;30.346;2022-08-21T17:30:16;101488.84;;;24.22;47.62
50650;BME280;36621;60.058;30.346;2022-08-21T17:37:49;101492.78;;;24.08;48.14
50650;BME280;36621;60.058;30.346;2022-08-21T17:45:23;101498.81;;;23.98;48.49
50650;BME280;36621;60.058;30.346;2022-08-21T17:52:58;101504.16;;;23.91;49.02
50650;BME280;36621;60.058;30.346;2022-08-21T18:44:05;101500.22;;;23.37;51.23
50650;BME280;36621;60.058;30.346;2022-08-21T18:51:37;101492.06;;;23.32;51.02
50650;BME280;36621;60.058;30.346;2022-08-21T18:59:16;101490.78;;;23.30;51.47
50650;BME280;36621;60.058;30.346;2022-08-21T19:06:48;101484.06;;;23.31;51.29
50650;BME280;36621;60.058;30.346;2022-08-21T19:31:33;101465.03;;;23.66;49.66
50650;BME280;36621;60.058;30.346;2022-08-21T19:39:06;101460.50;;;23.74;49.12
50650;BME280;36621;60.058;30.346;2022-08-21T19:46:42;101459.13;;;23.80;48.58
50650;BME280;36621;60.058;30.346;2022-08-21T19:54:16;101467.63;;;23.84;48.22
50650;BME280;36621;60.058;30.346;2022-08-21T20:01:49;101459.59;;;23.82;47.76
50650;BME280;36621;60.058;30.346;2022-08-21T20:09:20;101455.06;;;23.78;47.48
50650;BME280;36621;60.058;30.346;2022-08-21T20:16:53;101451.34;;;23.73;47.03
50650;BME280;36621;60.058;30.346;2022-08-21T20:24:25;101445.28;;;23.71;46.99
50650;BME280;36621;60.058;30.346;2022-08-21T20:31:57;101438.56;;;23.72;46.73
50650;BME280;36621;60.058;30.346;2022-08-21T20:39:29;101439.38;;;23.73;46.61
50650;BME280;36621;60.058;30.346;2022-08-21T20:47:02;101436.56;;;23.73;46.20
50650;BME280;36621;60.058;30.346;2022-08-21T20:54:36;101435.53;;;23.65;45.98
50650;BME280;36621;60.058;30.346;2022-08-21T21:10:02;101433.56;;;23.32;45.87
50650;BME280;36621;60.058;30.346;2022-08-21T21:17:36;101424.00;;;23.21;46.06
50650;BME280;36621;60.058;30.346;2022-08-21T21:25:13;101418.38;;;23.09;45.81
50650;BME280;36621;60.058;30.346;2022-08-21T21:32:46;101424.38;;;22.98;45.79
50650;BME280;36621;60.058;30.346;2022-08-21T21:40:24;101418.72;;;22.86;45.86
50650;BME280;36621;60.058;30.346;2022-08-21T21:48:01;101425.84;;;22.75;45.83
50650;BME280;36621;60.058;30.346;2022-08-21T21:55:43;101422.00;;;22.67;45.80
50650;BME280;36621;60.058;30.346;2022-08-21T22:03:21;101410.53;;;22.68;45.42
50650;BME280;36621;60.058;30.346;2022-08-21T22:10:58;101402.28;;;22.72;45.23
50650;BME280;36621;60.058;30.346;2022-08-21T22:18:31;101406.38;;;22.75;44.79
50650;BME280;36621;60.058;30.346;2022-08-21T22:26:08;101399.66;;;22.76;44.38
50650;BME280;36621;60.058;30.346;2022-08-21T22:33:40;101395.88;;;22.59;43.99
50650;BME280;36621;60.058;30.346;2022-08-21T22:41:16;101395.03;;;22.37;43.99
50650;BME280;36621;60.058;30.346;2022-08-21T22:48:50;101392.59;;;22.27;44.36
50650;BME280;36621;60.058;30.346;2022-08-21T22:56:28;101388.88;;;22.23;44.32
50650;BME280;36621;60.058;30.346;2022-08-21T23:11:56;101389.63;;;22.02;44.65
50650;BME280;36621;60.058;30.346;2022-08-21T23:19:35;101380.94;;;22.04;44.75
50650;BME280;36621;60.058;30.346;2022-08-21T23:27:11;101384.22;;;22.06;44.64
50650;BME280;36621;60.058;30.346;2022-08-21T23:34:49;101385.59;;;22.21;44.43
50650;BME280;36621;60.058;30.346;2022-08-21T23:42:39;101376.25;;;22.26;44.35
50650;BME280;36621;60.058;30.346;2022-08-21T23:50:15;101379.50;;;22.28;43.76
50650;BME280;36621;60.058;30.346;2022-08-21T23:57:59;101386.19;;;22.35;43.83
